Arley, Alabama
Current Conditions -  °F | °C
As of 1:35 PM on Tuesday 21 Oct 2014 (Local Time) from KJFX Reporting Station
Clear Clear  
Wind Chill: 79°   Ceiling: Unl
Heat Index: 80°   Visibility: 10mi
Dew Point: 57°   Wind: 6mph
Humidity: 47%   Direction: 320°NW
Pressure: 30.02"   Gusts: NA
Location:  34.08°N, 87.21°W
Report Text: KJFX 211835Z AUTO 32005KT 10SM CLR 26/14 A3002 RMK A02 P-128
Loading
Personal Weather Stations






























Interactive Weather Map New forecast layout! Learn more

10-Day Weather Forecast

Advertisements
Track Severe Weather on mobile